Airways and Terminal Forecast

Significant Meteorological Information

WSPH31 RPLL 120215 
RPHI SIGMET A01 VALID 120215/120615 RPLL-
RPHI MANILA FIR EMBD TS OBS WI N1149 E13000 - N1126 E12541 - N1246 E12406 - N1452 E12432 - N1633 E13000 - N1149 E13000 TOP FL530 MOV W 10KT NC=

Terminal Aerodrome Forecast

TAF RPLL

120500Z 1206/1312 06006KT 9999 FEW023 BKN100 TX30/1206Z TN26/1221Z TEMPO 1206/1212 12010KT 8000 -SHRA FEW022CB SCT023 BKN090 TEMPO 1212/1218 08006KT   SCT023 BKN090=

TAF RPVM

120500Z 1206/1312 34008KT 9999 FEW020 BKN100 TEMPO 1206/1212 36010KT  9000 -SHRA FEW018CB SCT020 OVC100 TEMPO 1212/1218 34012KT 9000 -SHRA FEW018CB FEW020 BKN100=

TAF RPLC

120500Z 1206/1312 02006KT 8000 SCT020 BKN300 TX32/1206Z TN24/1222Z TEMPO 1206/1212 32008KT 5000 -TSRA FEW015CB SCT020 OVC100=

TAF RPLB

120500Z 1206/1306 05005KT 9999 FEW020 SCT080 BKN300 TX31/1206Z TN24/1221Z TEMPO 1206/1212 07008KT 8000 -TSRA FEW018CB SCT020 BKN080=

TAF RPLI

120500Z 1206/1306 02008KT 9999 FEW018 BKN290 TEMPO 1206/1212 04012KT  FEW017CB FEW018 SCT100 BKN280=

TAF RPVP

120500Z 1206/1306 33006KT 9999 FEW019 SCT080 BKN240 TEMPO 1206/1212 02012KT  FEW019 BKN080=

TAF RPVD

120500Z 1206/1306 34006KT 9999 FEW015 SCT070 BKN220 TEMPO 1206/1212 02010KT  8000 -SHRA FEW014CB SCT015 BKN070=

TAF RPMR

120500Z 1206/1306 32005KT 9999 FEW018 BKN250 TEMPO 1206/1212 16008KT -SHRA FEW017CB SCT018 BKN080=

TAF RPMD

120500Z 1206/1306 34005KT 9999 FEW016 BKN290 TEMPO 1206/1212 04010KT -TSRA FEW015CB SCT016 BKN090=

TAF RPMZ

120500Z 1206/1306 32005KT 9999 FEW017 BKN300 TEMPO 1206/1212 19008KT FEW016CB FEW017 BKN090=

RPLL FORECAST TAKE-OFF CONDITION

TIME

(UTC)

WIND

(dddffKT)

TEMP

(°C)

QNH

(hPa)

TIME

(UTC)

WIND

(dddffKT)

TEMP

(°C)

QNH

(hPa)

0600

12006KT

30.0

1009.5

1000

12008KT

28.0

1011.5

0700

12008KT

29.5

1009.0

1100

12008KT

27.5

1012.0

0800

12010KT

29.0

1009.5

1200

12006KT

27.5

1012.5

0900

12010KT

28.5

1010.0

1300

10005KT

27.0

1012.5

 

ISSUED AT NAIA AMSS-WD/PAGASA-DOST FOR 0500UTC 12 NOVEMBER 2019

PREPARED BY:                 SSDH

CHECKED BY:                   MPT